createdAt,value
2023-04-05T00:04:15.816Z,34.30
2023-04-05T00:08:14.818Z,33.90
2023-04-05T00:12:13.737Z,35.70
2023-04-05T00:16:12.951Z,26.00
2023-04-05T00:20:14.700Z,31.20
2023-04-05T00:24:12.701Z,30.70
2023-04-05T00:28:10.661Z,34.60
2023-04-05T00:32:08.793Z,35.30
2023-04-05T00:36:06.723Z,38.80
2023-04-05T00:40:04.787Z,34.40
2023-04-05T00:44:03.751Z,31.50
2023-04-05T00:48:01.770Z,31.80
2023-04-05T00:52:04.845Z,31.40
2023-04-05T00:56:05.667Z,33.90
2023-04-05T01:00:03.629Z,30.70
2023-04-05T01:04:06.699Z,38.10
2023-04-05T01:08:13.679Z,39.10
2023-04-05T01:16:09.664Z,32.50
2023-04-05T01:20:15.837Z,35.10
2023-04-05T01:24:41.602Z,29.50
2023-04-05T01:29:16.625Z,36.10
2023-04-05T01:33:38.564Z,33.80
2023-04-05T01:37:40.603Z,39.30
2023-04-05T01:41:38.600Z,38.20
2023-04-05T01:45:38.566Z,37.80
2023-04-05T01:49:37.569Z,38.70
2023-04-05T01:53:35.608Z,36.80
2023-04-05T01:57:33.545Z,34.70
2023-04-05T02:01:31.721Z,34.00
2023-04-05T02:05:29.634Z,31.60
2023-04-05T02:09:27.614Z,27.50
2023-04-05T02:13:25.713Z,29.00
2023-04-05T02:17:24.533Z,27.10
2023-04-05T02:21:23.516Z,27.60
2023-04-05T02:25:22.582Z,28.80
2023-04-05T02:29:20.504Z,28.80
2023-04-05T02:33:18.552Z,33.10
2023-04-05T02:37:16.532Z,31.10
2023-04-05T02:41:14.617Z,34.40
2023-04-05T02:45:12.693Z,31.60
2023-04-05T02:49:10.494Z,34.50
2023-04-05T02:53:08.488Z,37.40
2023-04-05T02:57:08.568Z,36.50
2023-04-05T03:01:15.537Z,36.40
2023-04-05T03:05:13.487Z,38.40
2023-04-05T03:09:13.583Z,46.10
2023-04-05T03:13:13.455Z,45.90
2023-04-05T03:17:11.435Z,40.50
2023-04-05T03:21:18.504Z,44.50
2023-04-05T03:25:22.412Z,40.20
2023-04-05T03:29:21.555Z,41.80
2023-04-05T03:33:19.410Z,38.60
2023-04-05T03:37:17.448Z,38.80
2023-04-05T03:41:24.384Z,38.30
2023-04-05T03:45:24.577Z,38.30
2023-04-05T03:49:23.464Z,38.10
2023-04-05T03:53:24.461Z,34.50
2023-04-05T03:57:23.391Z,31.10
2023-04-05T04:01:22.428Z,35.30
2023-04-05T04:05:20.433Z,30.50
2023-04-05T04:09:18.477Z,37.80
2023-04-05T04:13:16.353Z,38.90
2023-04-05T04:17:25.684Z,33.90
2023-04-05T04:21:46.317Z,44.60
2023-04-05T04:26:05.360Z,39.50
2023-04-05T04:30:25.369Z,39.60
2023-04-05T04:34:51.310Z,37.10
2023-04-05T04:39:15.316Z,36.30
2023-04-05T04:43:49.322Z,35.90
2023-04-05T04:47:49.842Z,38.30
2023-04-05T04:51:59.419Z,35.00
2023-04-05T04:55:57.299Z,39.00
2023-04-05T04:59:55.326Z,41.10
2023-04-05T05:03:53.381Z,41.00
2023-04-05T05:07:57.308Z,37.90
2023-04-05T05:11:55.287Z,36.50
2023-04-05T05:15:55.304Z,41.90
2023-04-05T05:19:55.210Z,40.60
2023-04-05T05:23:54.430Z,43.10
2023-04-05T05:27:52.206Z,42.40
2023-04-05T05:31:51.391Z,38.50
2023-04-05T05:35:49.289Z,42.80
2023-04-05T05:39:47.345Z,41.40
2023-04-05T05:43:45.317Z,42.00
2023-04-05T05:47:43.347Z,43.10
2023-04-05T05:51:41.232Z,43.80
2023-04-05T05:55:39.226Z,39.20
2023-04-05T05:59:37.309Z,35.20
2023-04-05T06:03:05.330Z,37.90
2023-04-05T06:06:30.226Z,37.40
2023-04-05T06:09:54.163Z,37.10
2023-04-05T06:13:18.480Z,35.30
2023-04-05T06:16:42.430Z,35.40
2023-04-05T06:20:07.657Z,30.30
2023-04-05T06:23:33.006Z,31.10
2023-04-05T06:26:56.920Z,33.90
2023-04-05T06:30:20.961Z,33.40
2023-04-05T06:33:45.633Z,32.00
2023-04-05T06:37:09.596Z,30.20
2023-04-05T06:40:33.429Z,31.40
2023-04-05T06:43:57.620Z,30.20
2023-04-05T06:47:21.481Z,28.50
2023-04-05T06:50:45.563Z,25.10
2023-04-05T06:54:09.380Z,32.50
2023-04-05T06:57:33.241Z,27.40
2023-04-05T07:00:57.085Z,27.00
2023-04-05T07:04:21.427Z,27.20
2023-04-05T07:07:48.494Z,25.20
2023-04-05T07:11:15.970Z,30.90
2023-04-05T07:14:40.623Z,32.40
2023-04-05T07:18:04.802Z,26.80
2023-04-05T07:21:30.924Z,27.10
2023-04-05T07:24:55.694Z,27.10
2023-04-05T07:28:19.527Z,31.10
2023-04-05T07:31:44.029Z,34.20
2023-04-05T07:35:08.642Z,32.10
2023-04-05T07:38:32.468Z,32.00
2023-04-05T07:41:56.509Z,30.60
2023-04-05T07:45:20.831Z,27.50
2023-04-05T07:48:44.957Z,27.80
2023-04-05T07:52:08.832Z,28.00
2023-04-05T07:55:32.709Z,30.50
2023-04-05T07:58:56.887Z,27.50
2023-04-05T08:02:21.885Z,28.70
2023-04-05T08:05:46.171Z,28.80
2023-04-05T08:09:10.050Z,28.80
2023-04-05T08:12:36.575Z,27.30
2023-04-05T08:16:02.400Z,25.70
2023-04-05T08:19:26.542Z,26.90
2023-04-05T08:22:50.390Z,33.10
2023-04-05T08:26:15.383Z,27.90
2023-04-05T08:29:39.780Z,27.50
2023-04-05T08:33:04.355Z,26.10
2023-04-05T08:36:28.378Z,24.70
2023-04-05T08:39:52.333Z,26.60
2023-04-05T08:43:29.832Z,25.00
2023-04-05T08:46:57.460Z,28.30
2023-04-05T08:50:21.596Z,27.40
2023-04-05T08:53:45.718Z,29.30
2023-04-05T08:57:10.068Z,21.80
2023-04-05T09:00:34.177Z,24.00
2023-04-05T09:04:03.121Z,24.40
2023-04-05T09:07:31.437Z,21.00
2023-04-05T09:10:55.530Z,18.60
2023-04-05T09:14:21.409Z,18.90
2023-04-05T09:17:45.647Z,18.10
2023-04-05T09:21:10.356Z,20.00
2023-04-05T09:24:36.988Z,20.00
2023-04-05T09:28:03.352Z,21.40
2023-04-05T09:31:35.654Z,18.60
2023-04-05T09:35:06.002Z,17.00
2023-04-05T09:38:46.130Z,17.30
2023-04-05T09:42:18.257Z,17.10
2023-04-05T09:45:46.197Z,17.10
2023-04-05T09:49:10.434Z,15.40
2023-04-05T09:52:35.324Z,14.40
2023-04-05T09:56:11.206Z,19.10
2023-04-05T09:59:35.599Z,14.30
2023-04-05T10:02:59.568Z,15.50
2023-04-05T10:06:23.537Z,19.90
2023-04-05T10:09:48.941Z,15.40
2023-04-05T10:13:13.545Z,16.80
2023-04-05T10:16:55.816Z,13.20
2023-04-05T10:20:24.865Z,14.00
2023-04-05T10:24:00.111Z,12.20
2023-04-05T10:27:53.285Z,12.30
2023-04-05T10:31:37.154Z,14.50
2023-04-05T10:35:11.077Z,12.50
2023-04-05T10:39:21.573Z,13.30
2023-04-05T10:42:47.641Z,13.20
2023-04-05T10:46:12.803Z,11.80
2023-04-05T10:49:41.871Z,12.20
2023-04-05T10:53:06.530Z,13.60
2023-04-05T10:56:31.136Z,11.60
2023-04-05T10:59:55.778Z,11.40
2023-04-05T11:03:48.881Z,9.60
2023-04-05T11:07:20.767Z,10.00
2023-04-05T11:10:54.521Z,11.80
2023-04-05T11:14:26.631Z,8.80
2023-04-05T11:18:23.487Z,10.20
2023-04-05T11:21:47.937Z,11.00
2023-04-05T11:25:23.997Z,11.00
2023-04-05T11:32:13.875Z,10.30
2023-04-05T11:35:40.807Z,11.10
2023-04-05T11:39:20.230Z,12.00
2023-04-05T11:42:44.755Z,10.00
2023-04-05T11:46:08.708Z,12.20
2023-04-05T11:49:32.704Z,11.00
2023-04-05T11:53:19.739Z,11.70
2023-04-05T11:56:53.139Z,10.30
2023-04-05T12:00:18.751Z,10.00
2023-04-05T12:03:42.700Z,9.00
2023-04-05T12:07:32.640Z,8.00
2023-04-05T12:10:57.580Z,9.30
2023-04-05T12:14:24.894Z,12.10
2023-04-05T12:17:51.265Z,10.60
2023-04-05T12:21:15.675Z,10.20
2023-04-05T12:24:39.575Z,10.20
2023-04-05T12:28:09.137Z,8.40
2023-04-05T12:31:38.838Z,9.20
2023-04-05T12:35:02.669Z,7.80
2023-04-05T12:38:28.522Z,6.40
2023-04-05T12:42:01.982Z,7.80
2023-04-05T12:45:26.746Z,11.30
2023-04-05T12:48:53.800Z,11.90
2023-04-05T12:52:21.494Z,13.60
2023-04-05T12:55:50.728Z,9.40
2023-04-05T12:59:14.665Z,10.50
2023-04-05T13:02:38.630Z,11.50
2023-04-05T13:06:02.659Z,11.20
2023-04-05T13:09:28.750Z,10.50
2023-04-05T13:12:53.461Z,14.70
2023-04-05T13:16:17.941Z,10.10
2023-04-05T13:19:41.890Z,13.00
2023-04-05T13:23:10.952Z,12.50
2023-04-05T13:26:35.519Z,10.20
2023-04-05T13:29:59.355Z,11.10
2023-04-05T13:33:43.620Z,11.20
2023-04-05T13:37:41.567Z,12.50
2023-04-05T13:41:39.581Z,12.00
2023-04-05T13:45:37.540Z,12.40
2023-04-05T13:49:35.779Z,10.20
2023-04-05T13:53:33.554Z,8.70
2023-04-05T13:57:31.582Z,8.30
2023-04-05T14:01:29.665Z,8.80
2023-04-05T14:05:27.598Z,10.80
2023-04-05T14:09:25.576Z,9.20
2023-04-05T14:13:24.546Z,10.40
2023-04-05T14:17:23.553Z,7.80
2023-04-05T14:21:21.496Z,12.10
2023-04-05T14:25:19.574Z,13.90
2023-04-05T14:29:17.525Z,11.00
2023-04-05T14:33:15.489Z,13.10
2023-04-05T14:37:13.534Z,11.70
2023-04-05T14:41:12.497Z,9.80
2023-04-05T14:45:10.652Z,8.40
2023-04-05T14:49:08.553Z,10.40
2023-04-05T14:53:08.535Z,10.50
2023-04-05T14:57:06.483Z,10.20
2023-04-05T15:01:06.565Z,9.60
2023-04-05T15:05:07.436Z,8.30
2023-04-05T15:09:06.517Z,10.00
2023-04-05T15:13:04.431Z,12.60
2023-04-05T15:17:02.590Z,9.80
2023-04-05T15:21:00.423Z,11.10
2023-04-05T15:24:58.542Z,12.00
2023-04-05T15:28:56.477Z,11.00
2023-04-05T15:32:54.533Z,10.80
2023-04-05T15:36:52.391Z,9.10
2023-04-05T15:40:50.544Z,11.80
2023-04-05T15:44:49.376Z,11.00
2023-04-05T15:48:47.421Z,11.80
2023-04-05T15:52:45.403Z,7.90
2023-04-05T15:56:44.467Z,8.50
2023-04-05T16:00:42.489Z,10.50
2023-04-05T16:04:40.554Z,10.10
2023-04-05T16:08:38.443Z,9.70
2023-04-05T16:12:36.437Z,11.40
2023-04-05T16:16:41.987Z,10.20
2023-04-05T16:20:47.382Z,11.90
2023-04-05T16:24:45.440Z,9.10
2023-04-05T16:28:43.360Z,17.60
2023-04-05T16:32:41.376Z,16.90
2023-04-05T16:36:39.342Z,14.80
2023-04-05T16:40:37.371Z,12.60
2023-04-05T16:44:36.337Z,11.60
2023-04-05T16:48:34.322Z,11.90
2023-04-05T16:52:32.381Z,11.50
2023-04-05T16:56:31.730Z,11.60
2023-04-05T17:00:29.495Z,10.60
2023-04-05T17:04:27.260Z,11.90
2023-04-05T17:08:25.284Z,12.20
2023-04-05T17:12:23.293Z,11.10
2023-04-05T17:16:21.416Z,7.40
2023-04-05T17:20:19.207Z,8.60
2023-04-05T17:24:17.331Z,9.90
2023-04-05T17:28:15.226Z,12.00
2023-04-05T17:32:13.309Z,11.20
2023-04-05T17:36:11.234Z,11.50
2023-04-05T17:40:09.264Z,11.90
2023-04-05T17:44:07.262Z,12.50
2023-04-05T17:48:05.467Z,15.00
2023-04-05T17:52:03.319Z,13.50
2023-04-05T17:56:01.199Z,12.40
2023-04-05T18:00:04.217Z,16.40
2023-04-05T18:04:02.280Z,13.80
2023-04-05T18:08:00.224Z,15.50
2023-04-05T18:11:59.176Z,19.10
2023-04-05T18:15:57.191Z,17.00
2023-04-05T18:19:56.209Z,14.70
2023-04-05T18:23:54.172Z,17.60
2023-04-05T18:27:53.260Z,17.40
2023-04-05T18:31:51.258Z,16.20
2023-04-05T18:35:49.439Z,15.50
2023-04-05T18:39:48.367Z,34.40
2023-04-05T18:43:46.183Z,16.80
2023-04-05T18:47:44.121Z,14.60
2023-04-05T18:51:42.211Z,10.10
2023-04-05T18:55:40.174Z,11.40
2023-04-05T18:59:38.205Z,14.90
2023-04-05T19:03:36.171Z,17.60
2023-04-05T19:07:34.325Z,15.60
2023-04-05T19:11:32.092Z,18.80
2023-04-05T19:15:31.112Z,19.50
2023-04-05T19:19:29.182Z,12.60
2023-04-05T19:23:27.127Z,18.70
2023-04-05T19:27:26.163Z,12.30
2023-04-05T19:31:25.111Z,15.80
2023-04-05T19:35:23.108Z,16.20
2023-04-05T19:39:22.143Z,16.60
2023-04-05T19:43:21.039Z,21.20
2023-04-05T19:47:24.205Z,27.40
2023-04-05T19:51:26.113Z,23.60
2023-04-05T19:55:42.066Z,22.10
2023-04-05T19:59:44.266Z,21.60
2023-04-05T20:03:50.077Z,20.00
2023-04-05T20:07:48.031Z,23.50
2023-04-05T20:11:46.075Z,24.50
2023-04-05T20:15:50.001Z,26.20
2023-04-05T20:19:48.013Z,22.60
2023-04-05T20:23:45.975Z,21.40
2023-04-05T20:27:44.038Z,23.80
2023-04-05T20:31:47.053Z,20.00
2023-04-05T20:35:49.080Z,25.80
2023-04-05T20:39:47.054Z,19.10
2023-04-05T20:43:45.117Z,20.40
2023-04-05T20:47:43.023Z,19.20
2023-04-05T20:51:42.810Z,21.10
2023-04-05T20:55:40.986Z,23.90
2023-04-05T20:59:39.165Z,20.60
2023-04-05T21:03:37.184Z,20.60
2023-04-05T21:07:35.026Z,23.70
2023-04-05T21:11:33.104Z,23.70
2023-04-05T21:15:31.045Z,19.00
2023-04-05T21:19:28.923Z,21.80
2023-04-05T21:23:27.078Z,21.60
2023-04-05T21:27:25.020Z,18.60
2023-04-05T21:31:22.960Z,14.60
2023-04-05T21:35:21.117Z,19.50
2023-04-05T21:39:19.062Z,27.20
2023-04-05T21:43:16.956Z,16.70
2023-04-05T21:47:14.923Z,21.70
2023-04-05T21:51:12.885Z,19.20
2023-04-05T21:55:10.976Z,19.50
2023-04-05T21:59:09.098Z,17.20
2023-04-05T22:03:07.033Z,21.50
2023-04-05T22:07:04.871Z,17.50
2023-04-05T22:11:03.022Z,24.10
2023-04-05T22:15:00.829Z,16.30
2023-04-05T22:18:58.968Z,19.30
2023-04-05T22:22:56.954Z,17.00
2023-04-05T22:26:55.822Z,21.00
2023-04-05T22:30:53.917Z,23.60
2023-04-05T22:34:51.877Z,16.80
2023-04-05T22:38:51.121Z,16.90
2023-04-05T22:42:49.784Z,18.70
2023-04-05T22:46:47.936Z,19.10
2023-04-05T22:50:45.848Z,15.10
2023-04-05T22:54:43.758Z,13.50
2023-04-05T22:58:41.835Z,16.30
2023-04-05T23:02:39.826Z,15.80
2023-04-05T23:06:37.768Z,15.00
2023-04-05T23:10:35.846Z,17.50
2023-04-05T23:14:33.827Z,19.60
2023-04-05T23:18:31.807Z,19.60
2023-04-05T23:22:29.800Z,15.50
2023-04-05T23:26:28.787Z,18.80
2023-04-05T23:30:26.721Z,19.00
2023-04-05T23:34:24.699Z,23.00
2023-04-05T23:38:24.771Z,29.10
2023-04-05T23:42:22.707Z,26.20
2023-04-05T23:46:20.786Z,25.80
2023-04-05T23:50:18.686Z,27.20
2023-04-05T23:54:16.756Z,28.80
2023-04-05T23:58:14.765Z,24.90
